KBGR

UTC

Bangor International Airport

Bangor, Maine, United States

TAF Report

KBGR 282320Z 2900/2924 00000KT P6SM SCT080 BKN250 FM290700 00000KT 1/2SM FG BKN002 FM291400 00000KT P6SM SCT100

Issued

Sep 28 23:20 UTC

Valid From

Sep 29 00:00 UTC

Valid To

Sep 30 00:00 UTC

TAF Sections

  1. Sep 29 00:00 UTC - Sep 29 07:00 UTC

    TAF KBGR 282320Z 2900/2924 00000KT P6SM SCT080 BKN250

    Visibility

    Greater than 6 SM

    Clouds

    • Scattered at 8,000 ft AGL
    • Broken at 25,000 ft AGL

    Ceiling

    Broken at 25,000 ft AGL

  2. Sep 29 07:00 UTC - Sep 29 14:00 UTC

    FM290700 00000KT 1/2SM FG BKN002

    Visibility

    1/2 SM

    Conditions

    • Fog

    Clouds

    • Broken at 200 ft AGL

    Ceiling

    Broken at 200 ft AGL

  3. Sep 29 14:00 UTC - Sep 30 00:00 UTC

    FM291400 00000KT P6SM SCT100

    Visibility

    Greater than 6 SM

    Clouds

    • Scattered at 10,000 ft AGL